Time;durP1;ratioP1;P1;durP2;ratioP2;P2;SDS_P1;SDS_P2;PMS_P1;PMS_P2;Temp;Humidity;BMP_temperature;BMP_pressure;BME280_temperature;BME280_humidity;BME280_pressure;Samples;Min_cycle;Max_cycle;Signal;HPM_P1;HPM_P2
2023/03/10 00:02:25;;;;;;;13.73;8.30;;;;;;;;;;5017653;27;99253;-70
2023/03/10 00:04:52;;;;;;;26.58;9.95;;;;;;;;;;5030114;27;98369;-70
2023/03/10 00:07:20;;;;;;;25.88;12.45;;;;;;;;;;5024669;27;98750;-70
2023/03/10 00:09:46;;;;;;;23.50;11.68;;;;;;;;;;5010421;28;99004;-70
2023/03/10 00:12:13;;;;;;;21.73;11.20;;;;;;;;;;5010939;28;98244;-70
2023/03/10 00:14:42;;;;;;;17.25;9.68;;;;;;;;;;5011792;28;99623;-70
2023/03/10 00:17:10;;;;;;;16.42;10.85;;;;;;;;;;5012586;28;99263;-70
2023/03/10 00:19:36;;;;;;;19.58;10.90;;;;;;;;;;5018335;28;99617;-70
2023/03/10 00:22:03;;;;;;;18.20;10.13;;;;;;;;;;5030001;27;99235;-71
2023/03/10 00:24:29;;;;;;;20.30;10.48;;;;;;;;;;5021258;28;99115;-71
2023/03/10 00:26:55;;;;;;;15.60;10.15;;;;;;;;;;5022885;28;99089;-69
2023/03/10 00:29:22;;;;;;;18.02;9.13;;;;;;;;;;5011608;28;98889;-70
2023/03/10 00:31:52;;;;;;;21.38;9.45;;;;;;;;;;5023907;28;98312;-69
2023/03/10 00:34:18;;;;;;;23.10;11.43;;;;;;;;;;5028249;28;98824;-69
2023/03/10 00:36:44;;;;;;;22.30;10.38;;;;;;;;;;5011448;28;98838;-69
2023/03/10 00:39:11;;;;;;;23.98;11.05;;;;;;;;;;5021224;27;99496;-69
2023/03/10 00:41:40;;;;;;;17.65;9.85;;;;;;;;;;5023196;28;99348;-70
2023/03/10 00:44:08;;;;;;;19.23;10.40;;;;;;;;;;5013626;28;99397;-71
2023/03/10 00:46:37;;;;;;;19.60;10.65;;;;;;;;;;5021681;28;99872;-71
2023/03/10 00:49:12;;;;;;;13.07;8.00;;;;;;;;;;5014157;28;98861;-70
2023/03/10 00:51:39;;;;;;;14.27;9.13;;;;;;;;;;5017878;28;98284;-70
2023/03/10 00:54:05;;;;;;;15.20;9.65;;;;;;;;;;5018010;28;98587;-71
2023/03/10 00:56:32;;;;;;;22.65;10.35;;;;;;;;;;5020516;28;100826;-70
2023/03/10 00:58:59;;;;;;;16.27;8.82;;;;;;;;;;5021497;28;98822;-70
2023/03/10 01:01:33;;;;;;;17.27;9.35;;;;;;;;;;5019780;28;99923;-71
2023/03/10 01:04:01;;;;;;;18.63;9.00;;;;;;;;;;5013695;28;98231;-70
2023/03/10 01:06:29;;;;;;;9.45;7.75;;;;;;;;;;5020079;27;99408;-70
2023/03/10 01:08:55;;;;;;;18.83;10.35;;;;;;;;;;5018910;28;99277;-70
2023/03/10 01:11:24;;;;;;;16.33;9.60;;;;;;;;;;5023036;27;98441;-70
2023/03/10 01:13:51;;;;;;;16.90;9.25;;;;;;;;;;5020918;28;100989;-69
2023/03/10 01:16:17;;;;;;;18.52;10.50;;;;;;;;;;5012343;28;100025;-71
2023/03/10 01:18:45;;;;;;;19.70;10.95;;;;;;;;;;5017557;27;98386;-70
2023/03/10 01:21:16;;;;;;;15.52;8.65;;;;;;;;;;5019230;28;99826;-70
2023/03/10 01:23:43;;;;;;;15.65;9.68;;;;;;;;;;5015647;27;99791;-71
2023/03/10 01:26:09;;;;;;;13.27;8.80;;;;;;;;;;5015492;28;99218;-71
2023/03/10 01:28:36;;;;;;;19.20;10.70;;;;;;;;;;5025433;28;101875;-72
2023/03/10 01:31:04;;;;;;;22.30;9.93;;;;;;;;;;5022968;28;99265;-71
2023/03/10 01:33:31;;;;;;;18.08;9.82;;;;;;;;;;5015557;28;98526;-71
2023/03/10 01:35:57;;;;;;;19.20;10.68;;;;;;;;;;5018733;28;99004;-70
2023/03/10 01:38:24;;;;;;;18.92;10.30;;;;;;;;;;5019469;28;98311;-70
2023/03/10 01:40:52;;;;;;;15.98;8.40;;;;;;;;;;5013087;27;98516;-70
2023/03/10 01:43:18;;;;;;;16.85;9.50;;;;;;;;;;5009213;28;99168;-71
2023/03/10 01:45:45;;;;;;;25.95;11.48;;;;;;;;;;5019460;28;100319;-70
2023/03/10 01:48:14;;;;;;;16.48;10.05;;;;;;;;;;5013752;28;100977;-70
2023/03/10 01:50:41;;;;;;;17.98;9.65;;;;;;;;;;5025967;28;99473;-70
2023/03/10 01:53:09;;;;;;;17.45;10.23;;;;;;;;;;5020889;28;100859;-70
2023/03/10 01:55:40;;;;;;;17.90;10.68;;;;;;;;;;5014219;28;101617;-71
2023/03/10 01:58:07;;;;;;;22.90;10.48;;;;;;;;;;5019380;28;98137;-69
2023/03/10 02:00:34;;;;;;;25.10;11.30;;;;;;;;;;5017325;27;98564;-70
2023/03/10 02:03:26;;;;;;;14.25;9.02;;;;;;;;;;5008219;28;101538;-70
2023/03/10 02:05:58;;;;;;;19.25;9.75;;;;;;;;;;5021829;27;98551;-71
2023/03/10 02:08:28;;;;;;;10.95;6.82;;;;;;;;;;5015537;28;99163;-71
2023/03/10 02:10:56;;;;;;;13.77;8.85;;;;;;;;;;5010056;28;98191;-71
2023/03/10 02:13:22;;;;;;;18.45;10.18;;;;;;;;;;5020999;28;99429;-70
2023/03/10 02:15:49;;;;;;;20.35;10.07;;;;;;;;;;5024473;28;101797;-72
2023/03/10 02:18:16;;;;;;;20.58;10.63;;;;;;;;;;5024521;27;98170;-71
2023/03/10 02:20:47;;;;;;;19.15;10.77;;;;;;;;;;5023195;28;98460;-70
2023/03/10 02:23:18;;;;;;;17.50;9.32;;;;;;;;;;5031035;27;100975;-69
2023/03/10 02:26:04;;;;;;;21.73;10.50;;;;;;;;;;5019903;28;98369;-70
2023/03/10 02:28:30;;;;;;;21.73;9.75;;;;;;;;;;5028595;28;98947;-71
2023/03/10 02:30:57;;;;;;;19.83;9.88;;;;;;;;;;5018163;28;98341;-71
2023/03/10 02:33:25;;;;;;;25.60;10.27;;;;;;;;;;5017984;27;99359;-71
2023/03/10 02:36:01;;;;;;;13.13;7.45;;;;;;;;;;5021524;28;100139;-71
2023/03/10 02:38:27;;;;;;;;;;;;;;;;;;5027535;27;98488;-71
2023/03/10 02:40:54;;;;;;;20.85;10.13;;;;;;;;;;5026732;28;98085;-70
2023/03/10 02:43:26;;;;;;;9.95;5.32;;;;;;;;;;5018043;28;101444;-71
2023/03/10 02:46:01;;;;;;;8.88;6.55;;;;;;;;;;5009430;28;98300;-70
2023/03/10 02:48:30;;;;;;;20.67;10.38;;;;;;;;;;5020530;28;98467;-71
2023/03/10 02:50:59;;;;;;;23.00;8.85;;;;;;;;;;5021789;28;100835;-71
2023/03/10 02:53:26;;;;;;;15.07;9.27;;;;;;;;;;5026000;27;98570;-71
2023/03/10 02:55:53;;;;;;;25.90;10.98;;;;;;;;;;5023063;28;100822;-72
2023/03/10 02:58:20;;;;;;;17.98;9.63;;;;;;;;;;5022162;28;98117;-72
2023/03/10 03:00:47;;;;;;;16.63;9.05;;;;;;;;;;5014521;28;99027;-71
2023/03/10 03:03:17;;;;;;;24.10;11.73;;;;;;;;;;5012282;28;98854;-71
2023/03/10 03:05:44;;;;;;;20.75;10.50;;;;;;;;;;5025589;28;99837;-71
2023/03/10 03:08:12;;;;;;;25.95;11.15;;;;;;;;;;5020214;28;100572;-71
2023/03/10 03:10:38;;;;;;;25.33;10.75;;;;;;;;;;5008896;28;100058;-71
2023/03/10 03:13:06;;;;;;;19.90;10.02;;;;;;;;;;5022933;28;98309;-71
2023/03/10 03:15:33;;;;;;;19.50;9.32;;;;;;;;;;5019563;28;101656;-71
2023/03/10 03:18:00;;;;;;;22.83;9.77;;;;;;;;;;5017475;27;98401;-71
2023/03/10 03:20:29;;;;;;;28.77;11.60;;;;;;;;;;5023622;28;101219;-71
2023/03/10 03:22:56;;;;;;;25.95;11.00;;;;;;;;;;5019502;28;101018;-71
2023/03/10 03:25:23;;;;;;;13.82;7.57;;;;;;;;;;5013286;28;98474;-72
2023/03/10 03:27:50;;;;;;;19.38;10.43;;;;;;;;;;5021053;27;99158;-71
2023/03/10 03:30:19;;;;;;;17.77;9.35;;;;;;;;;;5019941;28;101613;-71
2023/03/10 03:32:47;;;;;;;19.77;10.05;;;;;;;;;;5007848;28;98590;-71
2023/03/10 03:35:20;;;;;;;13.15;8.27;;;;;;;;;;5015631;27;101061;-72
2023/03/10 03:37:46;;;;;;;17.13;9.82;;;;;;;;;;5021875;28;99989;-71
2023/03/10 03:40:13;;;;;;;19.90;9.70;;;;;;;;;;5026006;27;99233;-71
2023/03/10 03:42:44;;;;;;;17.10;10.32;;;;;;;;;;5012771;28;101744;-71
2023/03/10 03:45:11;;;;;;;16.33;8.43;;;;;;;;;;5019965;28;98369;-71
2023/03/10 03:47:38;;;;;;;18.05;10.18;;;;;;;;;;5018926;27;98180;-71
2023/03/10 03:50:05;;;;;;;22.05;10.95;;;;;;;;;;5021114;28;99103;-71
2023/03/10 03:52:32;;;;;;;15.13;8.30;;;;;;;;;;5018757;28;98207;-71
2023/03/10 03:54:59;;;;;;;21.77;10.30;;;;;;;;;;5023528;28;100575;-71
2023/03/10 03:57:26;;;;;;;21.75;10.05;;;;;;;;;;5021921;28;98210;-71
2023/03/10 03:59:52;;;;;;;29.25;11.07;;;;;;;;;;5024730;28;102446;-71
2023/03/10 04:02:19;;;;;;;25.63;11.85;;;;;;;;;;5024617;28;101164;-70
2023/03/10 04:04:46;;;;;;;27.27;11.60;;;;;;;;;;5023161;27;98529;-71
2023/03/10 04:07:15;;;;;;;30.33;12.75;;;;;;;;;;5016302;28;100930;-71
2023/03/10 04:09:42;;;;;;;23.33;10.57;;;;;;;;;;5012045;27;101320;-71
2023/03/10 04:12:09;;;;;;;22.60;10.23;;;;;;;;;;5012144;27;98218;-71
2023/03/10 04:14:37;;;;;;;17.73;8.75;;;;;;;;;;5019190;28;99349;-71
2023/03/10 04:17:03;;;;;;;24.98;10.82;;;;;;;;;;5029455;27;99933;-71
2023/03/10 04:19:30;;;;;;;15.98;7.88;;;;;;;;;;5024398;28;98342;-71
2023/03/10 04:22:03;;;;;;;17.73;9.20;;;;;;;;;;5041308;27;100841;-72
2023/03/10 04:24:32;;;;;;;22.90;10.95;;;;;;;;;;5020715;28;98843;-71
2023/03/10 04:26:58;;;;;;;14.45;8.68;;;;;;;;;;5019759;27;98661;-71
2023/03/10 04:29:26;;;;;;;23.77;10.65;;;;;;;;;;5022796;28;100922;-72
2023/03/10 04:31:54;;;;;;;34.15;11.63;;;;;;;;;;5013202;28;98383;-71
2023/03/10 04:34:34;;;;;;;25.38;11.60;;;;;;;;;;5011210;28;100434;-71
2023/03/10 04:37:01;;;;;;;26.95;11.40;;;;;;;;;;5018092;28;101821;-71
2023/03/10 04:39:28;;;;;;;22.10;10.13;;;;;;;;;;5028136;28;98283;-71
2023/03/10 04:41:54;;;;;;;19.00;9.35;;;;;;;;;;5024458;28;101973;-71
2023/03/10 04:44:21;;;;;;;21.20;9.48;;;;;;;;;;5021505;27;99762;-71
2023/03/10 04:46:58;;;;;;;16.80;6.85;;;;;;;;;;5022775;28;99435;-71
2023/03/10 04:49:24;;;;;;;26.45;11.40;;;;;;;;;;5027775;27;98717;-71
2023/03/10 04:51:51;;;;;;;21.23;10.45;;;;;;;;;;5016657;28;98518;-71
2023/03/10 04:54:18;;;;;;;20.33;10.40;;;;;;;;;;5011141;28;99401;-70
2023/03/10 04:56:46;;;;;;;17.85;8.75;;;;;;;;;;5027928;28;99354;-71
2023/03/10 04:59:13;;;;;;;15.93;7.70;;;;;;;;;;5021388;28;98826;-72
2023/03/10 05:01:41;;;;;;;20.23;9.23;;;;;;;;;;5015383;28;98769;-71
2023/03/10 05:04:08;;;;;;;21.08;9.25;;;;;;;;;;5014967;28;98220;-71
2023/03/10 05:06:34;;;;;;;25.05;11.05;;;;;;;;;;5017145;27;98489;-71
2023/03/10 05:09:24;;;;;;;13.23;7.18;;;;;;;;;;5019766;27;99678;-71
2023/03/10 05:11:53;;;;;;;18.17;8.02;;;;;;;;;;5021639;28;98236;-71
2023/03/10 05:14:20;;;;;;;13.20;6.03;;;;;;;;;;5014097;27;98478;-71
2023/03/10 05:16:47;;;;;;;20.42;9.32;;;;;;;;;;5019992;28;99892;-71
2023/03/10 05:19:14;;;;;;;12.02;6.63;;;;;;;;;;5018870;28;98227;-72
2023/03/10 05:21:40;;;;;;;14.10;8.27;;;;;;;;;;5027549;28;98545;-71
2023/03/10 05:24:08;;;;;;;17.90;8.10;;;;;;;;;;5024793;28;100714;-72
2023/03/10 05:26:34;;;;;;;17.50;7.55;;;;;;;;;;5023775;27;99401;-72
2023/03/10 05:29:02;;;;;;;25.20;7.85;;;;;;;;;;5020328;27;101657;-72
2023/03/10 05:31:41;;;;;;;17.58;8.35;;;;;;;;;;5027760;28;98630;-71
2023/03/10 05:34:15;;;;;;;22.73;7.18;;;;;;;;;;5018590;28;99300;-71
2023/03/10 05:36:43;;;;;;;14.07;6.78;;;;;;;;;;5021540;27;101032;-71
2023/03/10 05:39:10;;;;;;;11.38;5.90;;;;;;;;;;5024000;28;98769;-71
2023/03/10 05:41:41;;;;;;;16.15;7.38;;;;;;;;;;5019146;28;100706;-71
2023/03/10 05:44:08;;;;;;;18.85;8.63;;;;;;;;;;5016979;28;101588;-72
2023/03/10 05:46:36;;;;;;;22.45;8.93;;;;;;;;;;5024324;28;98411;-71
2023/03/10 05:49:03;;;;;;;11.77;6.88;;;;;;;;;;5012988;28;99941;-72
2023/03/10 05:51:30;;;;;;;17.30;8.60;;;;;;;;;;5012621;28;98263;-72
2023/03/10 05:54:01;;;;;;;12.55;6.85;;;;;;;;;;5020236;27;99839;-71
2023/03/10 05:56:29;;;;;;;9.70;5.80;;;;;;;;;;5020357;28;101853;-71
2023/03/10 05:58:59;;;;;;;13.98;7.10;;;;;;;;;;5015223;28;99837;-71
2023/03/10 06:01:31;;;;;;;15.40;6.07;;;;;;;;;;5008766;28;100796;-71
2023/03/10 06:03:57;;;;;;;11.65;5.72;;;;;;;;;;5016594;28;100195;-71
2023/03/10 06:06:24;;;;;;;9.48;6.00;;;;;;;;;;5019694;27;98345;-73
2023/03/10 06:08:50;;;;;;;10.98;6.38;;;;;;;;;;5015211;28;99429;-72
2023/03/10 06:11:17;;;;;;;10.95;6.85;;;;;;;;;;5024516;27;100014;-72
2023/03/10 06:13:43;;;;;;;10.48;6.18;;;;;;;;;;5014172;27;98882;-72
2023/03/10 06:16:10;;;;;;;8.48;5.75;;;;;;;;;;5022191;28;100143;-72
2023/03/10 06:18:36;;;;;;;12.02;7.20;;;;;;;;;;5017079;28;98250;-72
2023/03/10 06:21:03;;;;;;;13.77;6.85;;;;;;;;;;5010137;28;98822;-72
2023/03/10 06:23:30;;;;;;;8.20;5.13;;;;;;;;;;5015163;28;100299;-73
2023/03/10 06:26:02;;;;;;;6.15;3.13;;;;;;;;;;5016805;28;98241;-72
2023/03/10 06:28:32;;;;;;;9.25;5.40;;;;;;;;;;5028535;28;99146;-72
2023/03/10 06:31:04;;;;;;;7.53;6.18;;;;;;;;;;5015520;28;99782;-72
2023/03/10 06:33:30;;;;;;;10.75;6.57;;;;;;;;;;5020797;28;99439;-73
2023/03/10 06:35:57;;;;;;;9.75;5.68;;;;;;;;;;5017643;28;100396;-73
2023/03/10 06:38:24;;;;;;;7.65;5.80;;;;;;;;;;5027770;27;98269;-72
2023/03/10 06:40:50;;;;;;;10.10;6.28;;;;;;;;;;5018041;27;98711;-72
2023/03/10 06:43:17;;;;;;;6.88;5.38;;;;;;;;;;5022085;28;99936;-72
2023/03/10 06:45:44;;;;;;;5.63;4.50;;;;;;;;;;5028595;28;98301;-73
2023/03/10 06:48:12;;;;;;;9.68;6.45;;;;;;;;;;5027653;28;99618;-73
2023/03/10 06:50:46;;;;;;;8.45;5.82;;;;;;;;;;5023154;28;101534;-74
2023/03/10 06:53:13;;;;;;;5.47;4.35;;;;;;;;;;5016895;28;99598;-73
2023/03/10 06:55:40;;;;;;;11.20;5.38;;;;;;;;;;5017923;28;99568;-72
2023/03/10 06:58:06;;;;;;;11.15;5.93;;;;;;;;;;5016642;28;98241;-71
2023/03/10 07:00:33;;;;;;;9.40;5.72;;;;;;;;;;5021732;27;99492;-73
2023/03/10 07:02:59;;;;;;;11.38;6.80;;;;;;;;;;5019814;28;100218;-73
2023/03/10 07:05:26;;;;;;;17.45;7.57;;;;;;;;;;5020078;27;98474;-72
2023/03/10 07:07:55;;;;;;;11.55;6.15;;;;;;;;;;5009149;28;99414;-73
2023/03/10 07:10:22;;;;;;;12.32;5.38;;;;;;;;;;5026217;28;100620;-73
2023/03/10 07:12:53;;;;;;;14.57;8.18;;;;;;;;;;5030291;27;98480;-72
2023/03/10 07:15:21;;;;;;;13.80;5.70;;;;;;;;;;5024614;27;100539;-72
2023/03/10 07:17:48;;;;;;;17.10;6.60;;;;;;;;;;5012915;28;98276;-73
2023/03/10 07:20:14;;;;;;;11.07;6.38;;;;;;;;;;5027973;27;98649;-71
2023/03/10 07:22:40;;;;;;;21.05;8.43;;;;;;;;;;5018368;28;99964;-71
2023/03/10 07:25:07;;;;;;;14.15;7.53;;;;;;;;;;5011803;27;99240;-71
2023/03/10 07:27:33;;;;;;;9.50;6.00;;;;;;;;;;5007221;28;98636;-71
2023/03/10 07:30:00;;;;;;;8.93;4.72;;;;;;;;;;5007199;28;99230;-71
2023/03/10 07:32:26;;;;;;;16.17;8.30;;;;;;;;;;5019267;28;99806;-71
2023/03/10 07:34:53;;;;;;;14.00;6.97;;;;;;;;;;5031234;27;99296;-71
2023/03/10 07:37:19;;;;;;;16.95;7.70;;;;;;;;;;5027828;27;98234;-72
2023/03/10 07:39:46;;;;;;;15.30;7.72;;;;;;;;;;5027026;27;99323;-72
2023/03/10 07:42:12;;;;;;;13.10;7.15;;;;;;;;;;5022398;27;100701;-72
2023/03/10 07:44:40;;;;;;;16.48;7.38;;;;;;;;;;5010779;28;98550;-71
2023/03/10 07:47:07;;;;;;;11.10;6.10;;;;;;;;;;5019327;28;98718;-71
2023/03/10 07:49:33;;;;;;;21.23;8.25;;;;;;;;;;5019137;28;99016;-72
2023/03/10 07:52:00;;;;;;;19.15;7.78;;;;;;;;;;5024959;27;98400;-71
2023/03/10 07:54:26;;;;;;;11.40;6.35;;;;;;;;;;5023481;27;99599;-71
2023/03/10 07:56:52;;;;;;;6.93;4.68;;;;;;;;;;5024936;27;100247;-72
2023/03/10 07:59:19;;;;;;;13.15;7.10;;;;;;;;;;5026563;28;99575;-72
2023/03/10 08:01:45;;;;;;;10.63;6.55;;;;;;;;;;5024033;28;100142;-72
2023/03/10 08:04:13;;;;;;;12.43;7.05;;;;;;;;;;5025917;28;98226;-72
2023/03/10 08:06:39;;;;;;;12.20;5.63;;;;;;;;;;5025567;28;98276;-71
2023/03/10 08:09:06;;;;;;;8.70;4.93;;;;;;;;;;5016699;28;100246;-72
2023/03/10 08:11:32;;;;;;;17.63;7.18;;;;;;;;;;5021230;28;98294;-72
2023/03/10 08:13:59;;;;;;;12.48;10.32;;;;;;;;;;5019084;27;101287;-72
2023/03/10 08:16:25;;;;;;;16.20;7.75;;;;;;;;;;5019469;27;100258;-71
2023/03/10 08:18:53;;;;;;;16.20;7.65;;;;;;;;;;5026218;27;100977;-71
2023/03/10 08:21:20;;;;;;;12.68;7.03;;;;;;;;;;5025197;28;100229;-72
2023/03/10 08:23:46;;;;;;;12.65;6.95;;;;;;;;;;5015929;28;98327;-72
2023/03/10 08:26:14;;;;;;;13.45;8.90;;;;;;;;;;5018829;28;98422;-72
2023/03/10 08:28:41;;;;;;;13.45;7.20;;;;;;;;;;5023920;28;99100;-72
2023/03/10 08:31:08;;;;;;;9.25;5.63;;;;;;;;;;5026131;28;98355;-72
2023/03/10 08:33:35;;;;;;;9.38;5.32;;;;;;;;;;5024396;27;99407;-72
2023/03/10 08:36:03;;;;;;;15.32;7.05;;;;;;;;;;5019837;28;100515;-72
2023/03/10 08:38:30;;;;;;;11.32;6.13;;;;;;;;;;5014241;27;98380;-72
2023/03/10 08:40:56;;;;;;;10.57;5.05;;;;;;;;;;5009778;28;99050;-72
2023/03/10 08:43:23;;;;;;;4.43;3.95;;;;;;;;;;5022613;27;98772;-72
2023/03/10 08:45:49;;;;;;;19.27;13.95;;;;;;;;;;5022476;28;99699;-72
2023/03/10 08:48:16;;;;;;;12.02;7.18;;;;;;;;;;5022219;28;99640;-72
2023/03/10 08:50:42;;;;;;;8.90;5.55;;;;;;;;;;5014867;28;98444;-72
2023/03/10 08:53:11;;;;;;;8.73;5.80;;;;;;;;;;5017601;27;98557;-72
2023/03/10 08:55:38;;;;;;;7.47;4.65;;;;;;;;;;5021077;28;100016;-72
2023/03/10 08:58:04;;;;;;;11.50;6.03;;;;;;;;;;5021367;28;99386;-72
2023/03/10 09:00:30;;;;;;;6.40;4.35;;;;;;;;;;5020202;27;99518;-72
2023/03/10 09:02:57;;;;;;;15.20;6.25;;;;;;;;;;5022073;28;98296;-72
2023/03/10 09:05:23;;;;;;;7.47;4.30;;;;;;;;;;5024552;28;99419;-72
2023/03/10 09:07:50;;;;;;;12.18;5.30;;;;;;;;;;5029801;27;99979;-72
2023/03/10 09:10:19;;;;;;;8.63;5.15;;;;;;;;;;5029584;27;98299;-72
2023/03/10 09:12:45;;;;;;;4.93;3.65;;;;;;;;;;5030464;28;99708;-72
2023/03/10 09:15:11;;;;;;;6.25;4.13;;;;;;;;;;5029634;27;99053;-73
2023/03/10 09:17:38;;;;;;;4.05;3.50;;;;;;;;;;5029383;27;98557;-74
2023/03/10 09:20:06;;;;;;;5.53;4.03;;;;;;;;;;5028617;27;99614;-72
2023/03/10 09:22:33;;;;;;;6.78;4.93;;;;;;;;;;5033162;27;99805;-72
2023/03/10 09:24:59;;;;;;;5.38;3.75;;;;;;;;;;5028797;28;99778;-73
2023/03/10 09:27:26;;;;;;;7.32;4.35;;;;;;;;;;5029609;27;99594;-75
2023/03/10 09:29:52;;;;;;;5.50;4.18;;;;;;;;;;5029526;28;98319;-73
2023/03/10 09:32:19;;;;;;;6.55;4.55;;;;;;;;;;5026983;28;99448;-72
2023/03/10 09:34:45;;;;;;;4.50;3.65;;;;;;;;;;5018078;28;99064;-72
2023/03/10 09:37:12;;;;;;;7.05;4.32;;;;;;;;;;5027490;28;98520;-73
2023/03/10 09:39:38;;;;;;;8.00;4.55;;;;;;;;;;5025358;28;99996;-73
2023/03/10 09:42:24;;;;;;;10.63;4.57;;;;;;;;;;5009145;28;100163;-72
2023/03/10 09:45:09;;;;;;;5.25;4.05;;;;;;;;;;5017582;28;98150;-71
2023/03/10 09:47:58;;;;;;;6.25;3.97;;;;;;;;;;5028930;28;99958;-71
2023/03/10 09:50:28;;;;;;;6.53;4.95;;;;;;;;;;5029632;27;98300;-71
2023/03/10 09:53:00;;;;;;;11.55;4.72;;;;;;;;;;5028837;28;99891;-71
2023/03/10 09:55:39;;;;;;;10.65;5.28;;;;;;;;;;5029297;28;100143;-71
2023/03/10 09:58:21;;;;;;;6.05;4.15;;;;;;;;;;5029734;27;98471;-71
2023/03/10 10:00:47;;;;;;;6.85;3.97;;;;;;;;;;5028814;27;100019;-71
2023/03/10 10:03:18;;;;;;;8.18;3.65;;;;;;;;;;5029653;28;100013;-71
2023/03/10 10:05:46;;;;;;;6.05;4.20;;;;;;;;;;5029457;27;98221;-71
2023/03/10 10:08:24;;;;;;;4.43;4.03;;;;;;;;;;5031735;27;99614;-73
2023/03/10 10:10:58;;;;;;;7.57;4.75;;;;;;;;;;5028597;27;98177;-71
2023/03/10 10:13:28;;;;;;;3.47;2.95;;;;;;;;;;5028517;28;99668;-72
2023/03/10 10:16:04;;;;;;;4.18;3.70;;;;;;;;;;5028295;27;99089;-72
2023/03/10 10:19:01;;;;;;;4.22;3.72;;;;;;;;;;5028917;27;98141;-71
2023/03/10 10:21:34;;;;;;;6.00;3.88;;;;;;;;;;5028643;27;99631;-73
2023/03/10 10:24:08;;;;;;;4.57;3.63;;;;;;;;;;5028653;27;100123;-72
2023/03/10 10:26:34;;;;;;;5.63;3.85;;;;;;;;;;5020483;27;99122;-72
2023/03/10 10:29:05;;;;;;;11.27;2.80;;;;;;;;;;5013270;28;99588;-72
2023/03/10 10:31:32;;;;;;;3.80;3.50;;;;;;;;;;5029087;27;98686;-72
2023/03/10 10:34:05;;;;;;;5.10;3.75;;;;;;;;;;5028699;27;99609;-74
2023/03/10 10:36:34;;;;;;;3.67;3.03;;;;;;;;;;5027281;27;100196;-72
2023/03/10 10:39:01;;;;;;;4.95;3.28;;;;;;;;;;5028455;27;98321;-73
2023/03/10 10:41:32;;;;;;;2.85;2.53;;;;;;;;;;5027979;28;99499;-73
2023/03/10 10:44:04;;;;;;;5.50;3.83;;;;;;;;;;5028941;27;99008;-73
2023/03/10 10:46:31;;;;;;;3.58;3.28;;;;;;;;;;5028513;27;98257;-72
2023/03/10 10:49:04;;;;;;;4.38;3.97;;;;;;;;;;5027274;28;99694;-72
2023/03/10 10:51:32;;;;;;;4.43;3.22;;;;;;;;;;5031652;28;99703;-72
2023/03/10 10:54:01;;;;;;;6.13;4.22;;;;;;;;;;5028003;27;98740;-73
2023/03/10 10:56:27;;;;;;;3.97;3.58;;;;;;;;;;5027131;28;100328;-72
2023/03/10 10:59:01;;;;;;;8.20;4.22;;;;;;;;;;5028141;28;98275;-72
2023/03/10 11:01:44;;;;;;;4.53;4.07;;;;;;;;;;5027827;28;99489;-72
2023/03/10 11:04:11;;;;;;;4.38;3.97;;;;;;;;;;5027303;27;99786;-74
2023/03/10 11:06:38;;;;;;;3.50;3.20;;;;;;;;;;5028302;27;98198;-74
2023/03/10 11:09:07;;;;;;;2.63;2.42;;;;;;;;;;5028025;28;99433;-72
2023/03/10 11:11:37;;;;;;;2.75;2.47;;;;;;;;;;5027513;27;99832;-72
2023/03/10 11:14:22;;;;;;;2.17;2.08;;;;;;;;;;5026042;27;98318;-72
2023/03/10 11:16:52;;;;;;;3.10;2.80;;;;;;;;;;5014404;27;100571;-72
2023/03/10 11:19:38;;;;;;;2.97;2.78;;;;;;;;;;5101060;28;20071;-73
2023/03/10 11:22:35;;;;;;;5.82;2.83;;;;;;;;;;5100953;28;20776;-72
2023/03/10 11:25:21;;;;;;;3.20;2.65;;;;;;;;;;5075408;28;20131;-72
2023/03/10 11:28:03;;;;;;;3.00;2.60;;;;;;;;;;5100331;28;20044;-72
2023/03/10 11:30:33;;;;;;;3.10;2.67;;;;;;;;;;5102820;28;20051;-73
2023/03/10 11:33:15;;;;;;;2.58;2.40;;;;;;;;;;5119266;28;20094;-73
2023/03/10 11:35:48;;;;;;;2.78;2.55;;;;;;;;;;5121330;27;20109;-73
2023/03/10 11:38:35;;;;;;;3.35;2.55;;;;;;;;;;5120796;27;20056;-72
2023/03/10 11:41:13;;;;;;;13.30;3.80;;;;;;;;;;5121026;27;20068;-72
2023/03/10 11:43:53;;;;;;;2.33;2.00;;;;;;;;;;5121146;27;20044;-72
2023/03/10 11:46:24;;;;;;;2.78;2.58;;;;;;;;;;5120656;28;20044;-71
2023/03/10 11:48:56;;;;;;;2.63;2.33;;;;;;;;;;5121001;27;20052;-71
2023/03/10 11:51:31;;;;;;;2.00;1.90;;;;;;;;;;5121370;28;20048;-72
2023/03/10 11:54:02;;;;;;;2.22;2.13;;;;;;;;;;5122633;27;20050;-71
2023/03/10 11:56:31;;;;;;;3.30;3.03;;;;;;;;;;5123750;27;20088;-71
2023/03/10 11:59:12;;;;;;;2.60;2.40;;;;;;;;;;5110829;28;20040;-71
2023/03/10 12:01:59;;;;;;;3.03;2.78;;;;;;;;;;5125162;27;20735;-73
2023/03/10 12:04:43;;;;;;;3.50;2.97;;;;;;;;;;5124273;27;20056;-72
2023/03/10 12:07:09;;;;;;;2.28;2.17;;;;;;;;;;5105866;28;20044;-72
2023/03/10 12:09:50;;;;;;;3.75;3.42;;;;;;;;;;5124814;27;20086;-73
2023/03/10 12:12:28;;;;;;;2.95;2.75;;;;;;;;;;5124883;28;20066;-73
2023/03/10 12:14:58;;;;;;;3.47;2.83;;;;;;;;;;5123316;27;20055;-73
2023/03/10 12:17:27;;;;;;;2.70;2.50;;;;;;;;;;5124221;27;20071;-73
2023/03/10 12:20:23;;;;;;;3.88;3.17;;;;;;;;;;5123862;27;20051;-73
2023/03/10 12:22:51;;;;;;;2.78;2.55;;;;;;;;;;5059114;28;20672;-74
2023/03/10 12:25:27;;;;;;;2.13;2.03;;;;;;;;;;5102921;28;20056;-75
2023/03/10 12:28:12;;;;;;;3.03;2.80;;;;;;;;;;5121799;28;20091;-73
2023/03/10 12:30:57;;;;;;;3.85;2.92;;;;;;;;;;5124236;28;20066;-74
2023/03/10 12:33:30;;;;;;;2.22;2.03;;;;;;;;;;5124347;28;20055;-74
2023/03/10 12:36:14;;;;;;;2.50;2.30;;;;;;;;;;5122992;27;20498;-74
2023/03/10 12:38:45;;;;;;;2.80;2.60;;;;;;;;;;5124024;27;20052;-73
2023/03/10 12:41:33;;;;;;;4.07;2.70;;;;;;;;;;5123150;27;20056;-73
2023/03/10 12:44:04;;;;;;;;;;;;;;;;;;5123761;27;20134;-73
2023/03/10 12:46:46;;;;;;;3.42;2.90;;;;;;;;;;5122964;27;35275;-74
2023/03/10 12:49:12;;;;;;;7.95;3.42;;;;;;;;;;5123392;27;20508;-75
2023/03/10 12:51:41;;;;;;;4.95;3.03;;;;;;;;;;5127698;27;20055;-74
2023/03/10 12:54:12;;;;;;;10.82;2.70;;;;;;;;;;5144422;27;20052;-72
2023/03/10 12:56:41;;;;;;;4.15;3.63;;;;;;;;;;5142692;27;20060;-73
2023/03/10 12:59:13;;;;;;;4.72;4.30;;;;;;;;;;5144330;27;20055;-72
2023/03/10 13:01:42;;;;;;;4.00;3.67;;;;;;;;;;5140035;27;20094;-73
2023/03/10 13:04:21;;;;;;;2.60;2.45;;;;;;;;;;5122239;27;20040;-74
2023/03/10 13:06:48;;;;;;;1.77;1.67;;;;;;;;;;5123254;27;20127;-75
2023/03/10 13:09:17;;;;;;;0.40;0.40;;;;;;;;;;5122782;27;20059;-74
2023/03/10 13:12:04;;;;;;;0.40;0.40;;;;;;;;;;5123986;27;20062;-74
2023/03/10 13:14:38;;;;;;;0.40;0.40;;;;;;;;;;5116097;27;20063;-74
2023/03/10 13:17:05;;;;;;;0.40;0.40;;;;;;;;;;5122783;27;20110;-76
2023/03/10 13:19:32;;;;;;;0.40;0.40;;;;;;;;;;5123493;27;20044;-76
2023/03/10 13:21:59;;;;;;;0.40;0.40;;;;;;;;;;5123096;27;20040;-75
2023/03/10 13:24:27;;;;;;;0.43;0.43;;;;;;;;;;5122601;27;20055;-75
2023/03/10 13:27:10;;;;;;;0.40;0.40;;;;;;;;;;5123141;27;20074;-76
2023/03/10 13:29:37;;;;;;;0.40;0.40;;;;;;;;;;5123423;27;20521;-75
2023/03/10 13:32:03;;;;;;;0.38;0.38;;;;;;;;;;5122073;27;20048;-76
2023/03/10 13:34:31;;;;;;;0.40;0.40;;;;;;;;;;5112626;27;20102;-75
2023/03/10 13:37:05;;;;;;;0.40;0.40;;;;;;;;;;5102497;28;20040;-75
2023/03/10 13:39:32;;;;;;;0.40;0.40;;;;;;;;;;5102116;28;20057;-75
2023/03/10 13:41:59;;;;;;;0.40;0.40;;;;;;;;;;5102171;28;20456;-75
2023/03/10 13:44:39;;;;;;;0.40;0.40;;;;;;;;;;5101933;28;20139;-75
2023/03/10 13:47:25;;;;;;;0.40;0.40;;;;;;;;;;5101955;28;20125;-75
2023/03/10 13:49:51;;;;;;;0.40;0.40;;;;;;;;;;5102259;28;20194;-75
2023/03/10 13:52:20;;;;;;;0.40;0.40;;;;;;;;;;5109516;28;20058;-75
2023/03/10 13:54:46;;;;;;;0.40;0.40;;;;;;;;;;5123146;27;20130;-76
2023/03/10 13:57:22;;;;;;;0.40;0.40;;;;;;;;;;5122015;27;20062;-76
2023/03/10 13:59:49;;;;;;;0.43;0.43;;;;;;;;;;5121633;28;20830;-74
2023/03/10 14:02:32;;;;;;;0.40;0.40;;;;;;;;;;5121401;27;20571;-74
2023/03/10 14:04:59;;;;;;;0.40;0.40;;;;;;;;;;5122534;27;20052;-74
2023/03/10 14:07:27;;;;;;;0.50;0.50;;;;;;;;;;5115604;27;20052;-76
2023/03/10 14:10:07;;;;;;;0.40;0.40;;;;;;;;;;5114094;28;20501;-75
2023/03/10 14:12:35;;;;;;;0.50;0.50;;;;;;;;;;5113165;27;20117;-75
2023/03/10 14:15:09;;;;;;;0.50;0.50;;;;;;;;;;5120328;27;20050;-75
2023/03/10 14:17:37;;;;;;;0.40;0.40;;;;;;;;;;5118012;27;20091;-75
2023/03/10 14:20:05;;;;;;;0.40;0.40;;;;;;;;;;5117403;27;20052;-75
2023/03/10 14:22:36;;;;;;;0.50;0.50;;;;;;;;;;5117706;27;20127;-76
2023/03/10 14:25:13;;;;;;;1.40;1.40;;;;;;;;;;5115796;27;20062;-75
2023/03/10 14:27:41;;;;;;;0.80;0.80;;;;;;;;;;5114181;27;20083;-74
2023/03/10 14:30:16;;;;;;;0.40;0.40;;;;;;;;;;5120919;27;20036;-74
2023/03/10 14:32:43;;;;;;;0.50;0.50;;;;;;;;;;5113687;27;20127;-72
2023/03/10 14:35:10;;;;;;;0.50;0.50;;;;;;;;;;5112220;28;20055;-72
2023/03/10 14:37:37;;;;;;;0.40;0.40;;;;;;;;;;5119188;27;20063;-72
2023/03/10 14:40:04;;;;;;;0.40;0.40;;;;;;;;;;5116854;27;20052;-71
2023/03/10 14:42:31;;;;;;;0.50;0.50;;;;;;;;;;5122643;27;20052;-72
2023/03/10 14:45:06;;;;;;;0.40;0.40;;;;;;;;;;5117708;27;20078;-72
2023/03/10 14:47:33;;;;;;;1.48;1.42;;;;;;;;;;5120598;28;20047;-71